createdAt,value
2019-04-25T00:01:16.184Z,1.30
2019-04-25T00:03:44.662Z,1.00
2019-04-25T00:06:12.683Z,0.90
2019-04-25T00:08:41.319Z,1.27
2019-04-25T00:11:11.680Z,1.67
2019-04-25T00:13:39.696Z,1.32
2019-04-25T00:16:08.682Z,1.30
2019-04-25T00:18:36.313Z,1.80
2019-04-25T00:21:23.955Z,1.17
2019-04-25T00:23:53.573Z,1.25
2019-04-25T00:26:32.119Z,1.40
2019-04-25T00:28:59.803Z,1.05
2019-04-25T00:31:27.464Z,1.25
2019-04-25T00:33:55.036Z,1.15
2019-04-25T00:36:22.601Z,1.10
2019-04-25T00:38:50.587Z,1.30
2019-04-25T00:41:21.170Z,1.17
2019-04-25T00:43:49.602Z,1.30
2019-04-25T00:46:18.715Z,1.47
2019-04-25T00:48:48.462Z,1.70
2019-04-25T00:51:15.934Z,1.20
2019-04-25T00:53:44.585Z,1.20
2019-04-25T00:56:13.304Z,1.22
2019-04-25T00:58:43.976Z,1.35
2019-04-25T01:01:31.706Z,1.45
2019-04-25T01:03:59.676Z,1.35
2019-04-25T01:06:27.374Z,1.55
2019-04-25T01:08:55.923Z,1.40
2019-04-25T01:11:23.936Z,1.70
2019-04-25T01:13:52.488Z,1.20
2019-04-25T01:16:22.041Z,1.72
2019-04-25T01:18:50.817Z,0.88
2019-04-25T01:21:18.834Z,1.70
2019-04-25T01:23:47.238Z,1.50
2019-04-25T01:26:14.916Z,1.70
2019-04-25T01:28:43.936Z,1.30
2019-04-25T01:31:13.786Z,1.30
2019-04-25T01:33:43.251Z,1.52
2019-04-25T01:36:13.339Z,1.60
2019-04-25T01:38:43.369Z,1.60
2019-04-25T01:41:18.982Z,1.60
2019-04-25T01:43:48.759Z,1.50
2019-04-25T01:46:17.953Z,1.80
2019-04-25T01:48:45.546Z,1.45
2019-04-25T01:51:14.219Z,1.62
2019-04-25T01:53:44.013Z,2.40
2019-04-25T01:56:13.424Z,1.55
2019-04-25T01:58:41.428Z,1.60
2019-04-25T02:01:09.068Z,1.55
2019-04-25T02:03:36.757Z,1.57
2019-04-25T02:06:05.056Z,1.47
2019-04-25T02:08:33.968Z,1.95
2019-04-25T02:11:04.732Z,1.80
2019-04-25T02:13:33.630Z,1.77
2019-04-25T02:16:02.283Z,1.57
2019-04-25T02:18:29.726Z,1.70
2019-04-25T02:20:59.967Z,1.77
2019-04-25T02:23:26.722Z,1.80
2019-04-25T02:26:06.750Z,1.50
2019-04-25T02:28:24.075Z,1.87
2019-04-25T02:30:56.487Z,1.47
2019-04-25T02:33:24.267Z,1.77
2019-04-25T02:35:53.819Z,1.92
2019-04-25T02:38:24.114Z,2.10
2019-04-25T02:40:50.983Z,1.90
2019-04-25T02:43:18.737Z,2.10
2019-04-25T02:45:51.367Z,1.80
2019-04-25T02:48:20.816Z,1.55
2019-04-25T02:50:51.429Z,1.90
2019-04-25T02:53:34.423Z,1.75
2019-04-25T02:56:08.035Z,2.22
2019-04-25T02:58:34.278Z,1.75
2019-04-25T03:01:10.649Z,1.75
2019-04-25T03:03:34.774Z,1.70
2019-04-25T03:06:03.786Z,2.10
2019-04-25T03:08:31.979Z,2.20
2019-04-25T03:10:59.858Z,1.70
2019-04-25T03:13:27.524Z,1.80
2019-04-25T03:15:55.753Z,1.80
2019-04-25T03:18:25.619Z,1.57
2019-04-25T03:20:55.132Z,1.85
2019-04-25T03:23:34.451Z,1.80
2019-04-25T03:26:03.834Z,2.40
2019-04-25T03:28:31.613Z,1.55
2019-04-25T03:30:59.845Z,2.27
2019-04-25T03:33:28.558Z,2.20
2019-04-25T03:35:56.111Z,1.90
2019-04-25T03:38:24.288Z,2.90
2019-04-25T03:40:51.980Z,2.55
2019-04-25T03:43:19.715Z,2.65
2019-04-25T03:45:47.547Z,2.45
2019-04-25T03:48:15.095Z,2.60
2019-04-25T03:50:44.113Z,2.30
2019-04-25T03:53:12.484Z,2.02
2019-04-25T03:55:41.485Z,1.98
2019-04-25T03:58:10.935Z,2.17
2019-04-25T04:00:38.597Z,2.17
2019-04-25T04:03:07.640Z,1.50
2019-04-25T04:05:35.520Z,1.82
2019-04-25T04:08:04.331Z,2.27
2019-04-25T04:10:33.266Z,2.30
2019-04-25T04:13:00.987Z,2.15
2019-04-25T04:15:28.871Z,1.80
2019-04-25T04:17:58.243Z,2.00
2019-04-25T04:20:27.639Z,2.05
2019-04-25T04:23:09.258Z,2.00
2019-04-25T04:25:37.315Z,2.30
2019-04-25T04:28:06.143Z,2.80
2019-04-25T04:30:34.758Z,1.80
2019-04-25T04:33:03.607Z,1.75
2019-04-25T04:35:31.523Z,2.30
2019-04-25T04:37:59.593Z,1.80
2019-04-25T04:40:27.087Z,2.15
2019-04-25T04:42:54.665Z,5.70
2019-04-25T04:45:23.282Z,2.50
2019-04-25T04:47:51.055Z,2.70
2019-04-25T04:50:18.765Z,2.22
2019-04-25T04:52:46.339Z,2.35
2019-04-25T04:55:16.969Z,2.77
2019-04-25T04:57:44.877Z,2.30
2019-04-25T05:00:14.283Z,3.30
2019-04-25T05:02:44.009Z,2.20
2019-04-25T05:05:30.662Z,3.10
2019-04-25T05:08:00.432Z,2.55
2019-04-25T05:10:27.941Z,2.52
2019-04-25T05:12:55.632Z,2.08
2019-04-25T05:15:24.794Z,2.35
2019-04-25T05:17:54.150Z,2.35
2019-04-25T05:20:22.228Z,1.98
2019-04-25T05:22:50.057Z,1.90
2019-04-25T05:25:19.130Z,2.55
2019-04-25T05:27:59.535Z,2.15
2019-04-25T05:30:19.095Z,1.85
2019-04-25T05:32:46.812Z,1.80
2019-04-25T05:35:15.316Z,1.85
2019-04-25T05:37:44.001Z,2.02
2019-04-25T05:40:14.747Z,1.80
2019-04-25T05:42:47.552Z,1.50
2019-04-25T05:45:18.236Z,1.30
2019-04-25T05:47:45.389Z,1.15
2019-04-25T05:50:13.900Z,1.25
2019-04-25T05:52:41.678Z,1.42
2019-04-25T05:55:09.169Z,1.50
2019-04-25T05:57:45.554Z,1.22
2019-04-25T06:00:07.086Z,1.60
2019-04-25T06:02:34.742Z,1.37
2019-04-25T06:05:06.206Z,1.20
2019-04-25T06:07:33.846Z,1.25
2019-04-25T06:10:23.582Z,1.25
2019-04-25T06:12:53.694Z,1.05
2019-04-25T06:15:24.039Z,1.37
2019-04-25T06:17:55.527Z,0.90
2019-04-25T06:20:25.735Z,0.90
2019-04-25T06:23:13.281Z,1.20
2019-04-25T06:25:41.024Z,1.05
2019-04-25T06:28:13.943Z,0.98
2019-04-25T06:33:09.258Z,0.82
2019-04-25T06:35:37.644Z,1.20
2019-04-25T06:38:09.832Z,0.80
2019-04-25T06:40:37.510Z,0.90
2019-04-25T06:43:05.134Z,1.00
2019-04-25T06:45:40.736Z,2.45
2019-04-25T06:48:14.010Z,0.95
2019-04-25T06:50:41.818Z,0.60
2019-04-25T06:53:09.556Z,0.88
2019-04-25T06:55:37.270Z,0.60
2019-04-25T06:58:11.956Z,0.80
2019-04-25T07:00:40.985Z,0.55
2019-04-25T07:03:04.361Z,1.05
2019-04-25T07:05:35.781Z,0.80
2019-04-25T07:08:03.190Z,0.88
2019-04-25T07:10:31.471Z,0.60
2019-04-25T07:13:00.626Z,0.98
2019-04-25T07:15:28.227Z,0.70
2019-04-25T07:17:56.834Z,0.88
2019-04-25T07:20:26.815Z,1.05
2019-04-25T07:22:54.127Z,0.70
2019-04-25T07:25:26.032Z,0.65
2019-04-25T07:27:57.830Z,0.70
2019-04-25T07:30:49.287Z,0.72
2019-04-25T07:33:05.026Z,1.30
2019-04-25T07:35:33.823Z,0.60
2019-04-25T07:38:02.110Z,0.50
2019-04-25T07:40:31.759Z,0.85
2019-04-25T07:42:59.444Z,0.93
2019-04-25T07:45:27.113Z,0.98
2019-04-25T07:47:54.753Z,0.90
2019-04-25T07:50:23.849Z,1.37
2019-04-25T07:52:51.706Z,1.20
2019-04-25T07:55:19.228Z,0.85
2019-04-25T07:57:46.713Z,1.17
2019-04-25T08:00:14.411Z,0.93
2019-04-25T08:02:43.550Z,0.85
2019-04-25T08:05:14.241Z,1.10
2019-04-25T08:07:43.583Z,0.90
2019-04-25T08:10:11.511Z,1.35
2019-04-25T08:12:39.574Z,0.88
2019-04-25T08:15:15.409Z,0.88
2019-04-25T08:17:57.130Z,1.00
2019-04-25T08:20:26.490Z,0.98
2019-04-25T08:22:58.470Z,0.88
2019-04-25T08:25:23.568Z,1.65
2019-04-25T08:27:51.303Z,0.90
2019-04-25T08:30:19.125Z,1.00
2019-04-25T08:32:46.925Z,1.00
2019-04-25T08:35:16.074Z,0.95
2019-04-25T08:37:44.160Z,0.80
2019-04-25T08:40:13.581Z,1.17
2019-04-25T08:42:41.915Z,1.40
2019-04-25T08:45:10.451Z,1.20
2019-04-25T08:47:38.013Z,1.20
2019-04-25T08:50:08.909Z,1.07
2019-04-25T08:52:36.471Z,0.90
2019-04-25T08:55:09.771Z,0.90
2019-04-25T08:57:55.985Z,0.90
2019-04-25T09:00:25.871Z,1.00
2019-04-25T09:02:55.453Z,0.88
2019-04-25T09:05:25.051Z,0.88
2019-04-25T09:07:54.169Z,1.20
2019-04-25T09:10:23.632Z,0.90
2019-04-25T09:12:51.621Z,1.15
2019-04-25T09:15:19.303Z,1.27
2019-04-25T09:17:47.035Z,1.32
2019-04-25T09:20:16.724Z,0.80
2019-04-25T09:22:44.633Z,1.35
2019-04-25T09:25:14.046Z,1.10
2019-04-25T09:27:42.030Z,1.30
2019-04-25T09:30:11.611Z,1.80
2019-04-25T09:32:39.919Z,2.27
2019-04-25T09:35:07.632Z,1.42
2019-04-25T09:37:35.425Z,0.90
2019-04-25T09:40:07.521Z,1.20
2019-04-25T09:42:36.932Z,0.80
2019-04-25T09:45:06.641Z,1.00
2019-04-25T09:47:37.088Z,1.15
2019-04-25T09:50:07.065Z,1.20
2019-04-25T09:52:36.004Z,1.10
2019-04-25T09:55:08.276Z,1.15
2019-04-25T09:57:55.971Z,1.32
2019-04-25T10:00:38.184Z,1.00
2019-04-25T10:03:05.877Z,1.22
2019-04-25T10:05:33.963Z,1.10
2019-04-25T10:08:19.533Z,1.00
2019-04-25T10:10:47.841Z,1.00
2019-04-25T10:13:15.399Z,0.95
2019-04-25T10:16:02.923Z,1.37
2019-04-25T10:18:31.286Z,1.37
2019-04-25T10:20:58.755Z,0.93
2019-04-25T10:23:26.406Z,1.00
2019-04-25T10:25:54.150Z,1.20
2019-04-25T10:28:23.275Z,0.90
2019-04-25T10:30:51.018Z,0.75
2019-04-25T10:33:18.762Z,1.00
2019-04-25T10:35:51.990Z,1.05
2019-04-25T10:38:15.890Z,1.10
2019-04-25T10:40:45.146Z,1.10
2019-04-25T10:43:14.178Z,1.10
2019-04-25T10:45:42.405Z,1.00
2019-04-25T10:48:11.580Z,0.80
2019-04-25T10:50:40.161Z,1.17
2019-04-25T10:53:07.944Z,1.15
2019-04-25T10:55:35.784Z,0.85
2019-04-25T10:58:03.944Z,0.82
2019-04-25T11:00:40.581Z,0.93
2019-04-25T11:03:16.235Z,0.95
2019-04-25T11:05:43.801Z,1.00
2019-04-25T11:08:13.634Z,0.93
2019-04-25T11:10:43.874Z,0.90
2019-04-25T11:13:10.844Z,0.82
2019-04-25T11:15:38.764Z,1.02
2019-04-25T11:18:06.336Z,0.90
2019-04-25T11:20:33.944Z,0.70
2019-04-25T11:23:01.563Z,0.70
2019-04-25T11:25:29.258Z,0.95
2019-04-25T11:27:56.828Z,0.75
2019-04-25T11:30:26.332Z,0.90
2019-04-25T11:32:54.689Z,1.40
2019-04-25T11:35:24.180Z,0.60
2019-04-25T11:37:53.673Z,0.60
2019-04-25T11:40:34.610Z,0.70
2019-04-25T11:43:04.197Z,0.70
2019-04-25T11:45:34.592Z,0.70
2019-04-25T11:48:02.185Z,0.78
2019-04-25T11:50:29.873Z,0.65
2019-04-25T11:52:57.678Z,0.57
2019-04-25T11:55:25.157Z,1.05
2019-04-25T11:57:54.675Z,0.72
2019-04-25T12:00:24.540Z,0.60
2019-04-25T12:02:52.279Z,0.75
2019-04-25T12:05:20.240Z,0.80
2019-04-25T12:07:47.969Z,0.50
2019-04-25T12:10:16.140Z,0.68
2019-04-25T12:12:46.960Z,0.60
2019-04-25T12:15:14.922Z,0.37
2019-04-25T12:17:42.795Z,0.50
2019-04-25T12:20:10.396Z,1.10
2019-04-25T12:22:38.164Z,0.60
2019-04-25T12:25:07.479Z,0.42
2019-04-25T12:27:35.072Z,0.68
2019-04-25T12:30:05.386Z,0.60
2019-04-25T12:32:35.229Z,0.80
2019-04-25T12:35:06.119Z,0.82
2019-04-25T12:37:34.010Z,0.65
2019-04-25T12:40:04.404Z,0.60
2019-04-25T12:42:34.347Z,0.68
2019-04-25T12:45:14.141Z,0.60
2019-04-25T12:47:56.601Z,0.60
2019-04-25T12:50:24.592Z,0.70
2019-04-25T12:52:54.516Z,0.88
2019-04-25T12:55:21.909Z,1.00
2019-04-25T12:57:49.723Z,0.62
2019-04-25T13:00:23.845Z,0.70
2019-04-25T13:02:52.726Z,0.50
2019-04-25T13:05:20.529Z,0.80
2019-04-25T13:07:48.337Z,0.70
2019-04-25T13:10:15.939Z,0.82
2019-04-25T13:12:44.387Z,0.70
2019-04-25T13:15:13.084Z,0.62
2019-04-25T13:17:40.675Z,0.70
2019-04-25T13:20:08.406Z,0.68
2019-04-25T13:22:35.943Z,0.70
2019-04-25T13:25:05.631Z,0.60
2019-04-25T13:27:35.147Z,0.80
2019-04-25T13:30:17.991Z,0.50
2019-04-25T13:35:36.855Z,0.75
2019-04-25T13:38:04.747Z,0.80
2019-04-25T13:40:32.578Z,0.60
2019-04-25T13:43:00.181Z,0.80
2019-04-25T13:45:27.819Z,0.90
2019-04-25T13:47:55.362Z,0.90
2019-04-25T13:50:24.624Z,0.75
2019-04-25T13:52:53.348Z,0.80
2019-04-25T13:55:23.704Z,1.12
2019-04-25T13:57:53.106Z,0.70
2019-04-25T14:00:24.745Z,1.00
2019-04-25T14:02:52.511Z,0.98
2019-04-25T14:05:21.221Z,1.12
2019-04-25T14:07:49.069Z,0.80
2019-04-25T14:10:16.891Z,0.70
2019-04-25T14:12:44.399Z,0.80
2019-04-25T14:15:13.918Z,1.07
2019-04-25T14:18:00.394Z,0.57
2019-04-25T14:20:30.052Z,0.70
2019-04-25T14:22:57.785Z,0.78
2019-04-25T14:25:27.144Z,1.20
2019-04-25T14:27:55.018Z,1.12
2019-04-25T14:30:25.245Z,0.93
2019-04-25T14:32:53.794Z,1.70
2019-04-25T14:35:21.656Z,1.52
2019-04-25T14:37:50.466Z,0.88
2019-04-25T14:40:18.280Z,1.17
2019-04-25T14:42:47.358Z,1.00
2019-04-25T14:45:16.094Z,1.05
2019-04-25T14:47:43.675Z,1.02
2019-04-25T14:50:11.248Z,1.02
2019-04-25T14:52:38.822Z,0.90
2019-04-25T14:55:10.726Z,1.12
2019-04-25T14:57:38.430Z,1.10
2019-04-25T15:00:07.813Z,1.12
2019-04-25T15:02:37.049Z,1.10
2019-04-25T15:05:04.934Z,0.90
2019-04-25T15:07:32.438Z,1.20
2019-04-25T15:10:01.353Z,1.07
2019-04-25T15:12:29.403Z,1.10
2019-04-25T15:14:57.012Z,1.20
2019-04-25T15:17:24.628Z,1.50
2019-04-25T15:19:52.354Z,1.37
2019-04-25T15:22:19.955Z,1.20
2019-04-25T15:24:47.438Z,1.20
2019-04-25T15:27:15.037Z,1.20
2019-04-25T15:29:44.526Z,1.00
2019-04-25T15:32:14.329Z,0.95
2019-04-25T15:34:46.864Z,0.93
2019-04-25T15:37:16.290Z,1.00
2019-04-25T15:39:52.012Z,1.20
2019-04-25T15:42:36.772Z,1.27
2019-04-25T15:45:21.870Z,1.22
2019-04-25T15:47:49.533Z,1.20
2019-04-25T15:50:17.300Z,1.20
2019-04-25T15:52:45.098Z,1.05
2019-04-25T15:55:12.811Z,1.57
2019-04-25T15:57:40.827Z,1.25
2019-04-25T16:00:10.561Z,1.00
2019-04-25T16:02:39.012Z,1.62
2019-04-25T16:05:08.699Z,0.90
2019-04-25T16:07:36.321Z,1.02
2019-04-25T16:10:05.242Z,1.40
2019-04-25T16:12:33.191Z,1.27
2019-04-25T16:15:00.807Z,1.22
2019-04-25T16:17:28.586Z,1.27
2019-04-25T16:19:57.383Z,1.22
2019-04-25T16:22:24.847Z,1.25
2019-04-25T16:24:52.406Z,1.30
2019-04-25T16:27:20.235Z,1.17
2019-04-25T16:29:48.114Z,1.25
2019-04-25T16:32:20.836Z,1.02
2019-04-25T16:34:46.999Z,1.00
2019-04-25T16:37:14.587Z,1.40
2019-04-25T16:39:42.684Z,1.25
2019-04-25T16:42:10.388Z,1.40
2019-04-25T16:44:38.001Z,1.10
2019-04-25T16:47:05.586Z,1.17
2019-04-25T16:49:33.263Z,1.30
2019-04-25T16:52:00.757Z,1.60
2019-04-25T16:54:29.295Z,1.40
2019-04-25T16:56:58.042Z,1.00
2019-04-25T16:59:25.642Z,1.30
2019-04-25T17:01:53.355Z,1.00
2019-04-25T17:04:20.827Z,1.20
2019-04-25T17:06:48.543Z,1.40
2019-04-25T17:09:16.126Z,1.17
2019-04-25T17:11:43.825Z,0.80
2019-04-25T17:14:31.592Z,1.37
2019-04-25T17:17:04.003Z,1.20
2019-04-25T17:19:50.193Z,1.82
2019-04-25T17:22:19.081Z,1.40
2019-04-25T17:24:46.856Z,1.62
2019-04-25T17:27:14.545Z,1.20
2019-04-25T17:29:43.009Z,1.52
2019-04-25T17:32:29.506Z,1.30
2019-04-25T17:35:01.186Z,1.25
2019-04-25T17:37:36.790Z,1.30
2019-04-25T17:40:21.487Z,1.25
2019-04-25T17:42:51.899Z,1.50
2019-04-25T17:45:23.855Z,1.10
2019-04-25T17:47:56.349Z,1.10
2019-04-25T17:50:28.162Z,1.40
2019-04-25T17:52:57.929Z,1.17
2019-04-25T17:55:30.091Z,1.22
2019-04-25T17:58:03.039Z,1.20
2019-04-25T18:00:42.004Z,1.27
2019-04-25T18:03:14.466Z,0.98
2019-04-25T18:05:47.110Z,1.82
2019-04-25T18:08:19.170Z,1.17
2019-04-25T18:10:48.715Z,1.27
2019-04-25T18:13:17.786Z,1.17
2019-04-25T18:16:02.338Z,1.17
2019-04-25T18:18:44.412Z,1.20
2019-04-25T18:21:12.142Z,1.17
2019-04-25T18:23:41.870Z,1.30
2019-04-25T18:26:14.148Z,1.22
2019-04-25T18:28:43.791Z,1.50
2019-04-25T18:31:11.417Z,0.90
2019-04-25T18:33:39.336Z,1.32
2019-04-25T18:36:20.943Z,1.17
2019-04-25T18:38:53.378Z,1.20
2019-04-25T18:41:22.782Z,1.20
2019-04-25T18:43:53.321Z,1.00
2019-04-25T18:46:25.841Z,1.17
2019-04-25T18:48:54.427Z,1.10
2019-04-25T18:51:22.123Z,1.10
2019-04-25T18:53:51.735Z,1.77
2019-04-25T18:56:30.405Z,1.12
2019-04-25T18:59:16.840Z,0.80
2019-04-25T19:02:04.397Z,1.10
2019-04-25T19:04:39.648Z,1.10
2019-04-25T19:07:07.608Z,0.93
2019-04-25T19:09:35.189Z,0.95
2019-04-25T19:12:02.679Z,1.20
2019-04-25T19:14:30.399Z,1.12
2019-04-25T19:16:58.022Z,1.10
2019-04-25T19:19:25.671Z,1.10
2019-04-25T19:21:53.484Z,1.00
2019-04-25T19:24:21.087Z,1.07
2019-04-25T19:26:48.895Z,1.07
2019-04-25T19:29:16.877Z,1.10
2019-04-25T19:31:44.730Z,0.93
2019-04-25T19:34:12.589Z,1.10
2019-04-25T19:36:40.552Z,0.90
2019-04-25T19:39:09.167Z,0.95
2019-04-25T19:41:43.014Z,1.27
2019-04-25T19:44:13.080Z,1.65
2019-04-25T19:46:45.394Z,1.62
2019-04-25T19:49:14.074Z,1.17
2019-04-25T19:51:41.786Z,1.10
2019-04-25T19:54:09.770Z,1.10
2019-04-25T19:56:37.543Z,1.15
2019-04-25T19:59:05.047Z,1.10
2019-04-25T20:01:32.636Z,1.10
2019-04-25T20:04:02.333Z,1.30
2019-04-25T20:06:34.705Z,1.02
2019-04-25T20:09:22.287Z,1.00
2019-04-25T20:11:51.788Z,1.10
2019-04-25T20:14:19.359Z,1.07
2019-04-25T20:16:47.624Z,1.20
2019-04-25T20:19:15.328Z,1.15
2019-04-25T20:21:44.400Z,1.07
2019-04-25T20:24:12.421Z,1.10
2019-04-25T20:26:40.990Z,0.93
2019-04-25T20:29:08.580Z,1.00
2019-04-25T20:31:36.245Z,1.10
2019-04-25T20:34:06.170Z,0.95
2019-04-25T20:36:33.111Z,0.85
2019-04-25T20:39:00.694Z,1.10
2019-04-25T20:41:28.408Z,1.20
2019-04-25T20:43:56.966Z,1.07
2019-04-25T20:46:24.570Z,1.10
2019-04-25T20:48:52.304Z,1.00
2019-04-25T20:51:20.125Z,1.10
2019-04-25T20:53:48.815Z,1.00
2019-04-25T20:56:16.503Z,1.00
2019-04-25T20:58:44.096Z,1.15
2019-04-25T21:01:11.790Z,1.10
2019-04-25T21:03:39.385Z,1.07
2019-04-25T21:06:08.859Z,1.10
2019-04-25T21:08:36.529Z,1.10
2019-04-25T21:11:04.109Z,1.10
2019-04-25T21:13:33.693Z,1.20
2019-04-25T21:16:20.248Z,1.35
2019-04-25T21:19:06.703Z,1.07
2019-04-25T21:21:34.466Z,1.00
2019-04-25T21:24:02.235Z,0.70
2019-04-25T21:26:29.816Z,1.00
2019-04-25T21:28:58.309Z,1.02
2019-04-25T21:31:26.256Z,1.00
2019-04-25T21:33:53.869Z,1.07
2019-04-25T21:36:21.768Z,1.30
2019-04-25T21:38:49.619Z,1.30
2019-04-25T21:41:31.859Z,1.02
2019-04-25T21:44:02.271Z,0.80
2019-04-25T21:46:30.513Z,0.93
2019-04-25T21:48:58.935Z,1.00
2019-04-25T21:51:32.836Z,1.10
2019-04-25T21:54:01.426Z,0.80
2019-04-25T21:56:29.476Z,1.07
2019-04-25T21:58:57.760Z,0.90
2019-04-25T22:01:37.006Z,0.72
2019-04-25T22:04:05.170Z,0.90
2019-04-25T22:06:33.355Z,1.00
2019-04-25T22:09:01.167Z,1.25
2019-04-25T22:11:28.927Z,0.85
2019-04-25T22:13:57.376Z,0.90
2019-04-25T22:16:25.439Z,1.17
2019-04-25T22:18:53.399Z,1.27
2019-04-25T22:21:21.953Z,0.93
2019-04-25T22:23:49.815Z,0.85
2019-04-25T22:26:17.389Z,1.02
2019-04-25T22:28:45.161Z,0.95
2019-04-25T22:31:14.623Z,1.12
2019-04-25T22:33:55.485Z,1.15
2019-04-25T22:36:24.745Z,0.98
2019-04-25T22:39:11.589Z,0.93
2019-04-25T22:41:41.794Z,1.00
2019-04-25T22:44:14.733Z,1.10
2019-04-25T22:46:42.803Z,1.12
2019-04-25T22:49:10.328Z,0.85
2019-04-25T22:51:38.141Z,0.78
2019-04-25T22:54:06.124Z,1.02
2019-04-25T22:56:34.808Z,1.10
2019-04-25T22:59:03.189Z,1.30
2019-04-25T23:01:44.747Z,0.88
2019-04-25T23:04:14.309Z,1.10
2019-04-25T23:06:43.553Z,0.98
2019-04-25T23:09:12.088Z,1.00
2019-04-25T23:11:41.011Z,0.95
2019-04-25T23:14:08.902Z,1.00
2019-04-25T23:16:37.050Z,1.00
2019-04-25T23:19:05.109Z,1.10
2019-04-25T23:21:33.243Z,1.37
2019-04-25T23:24:00.797Z,1.12
2019-04-25T23:26:30.205Z,1.25
2019-04-25T23:28:59.662Z,0.98
2019-04-25T23:31:29.059Z,1.05
2019-04-25T23:33:56.923Z,0.88
2019-04-25T23:36:24.698Z,1.22
2019-04-25T23:38:52.369Z,1.40
2019-04-25T23:41:20.389Z,1.12
2019-04-25T23:43:47.966Z,1.05
2019-04-25T23:46:16.277Z,1.30
2019-04-25T23:48:43.957Z,1.05
2019-04-25T23:51:11.552Z,1.12
2019-04-25T23:53:39.307Z,1.27
2019-04-25T23:56:07.743Z,1.17
2019-04-25T23:58:36.279Z,1.00
